Lontzen, Belgium
Current Conditions -  °F | °C
As of 10:25 AM on Friday 28 Nov 2014 (Local Time) from EBLB Reporting Station
Scattered Clouds Scattered Clouds  
Wind Chill: 52°   Ceiling: Unl
Heat Index: 52°   Visibility: 6mi
Dew Point: 41°   Wind: 10mph
Humidity: 67%   Direction: 130°SE
Pressure: 29.74"   Gusts: NA
Location:  50.68°N, 6.01°E
Report Text: EBLB 280925Z AUTO 13009KT 9999 FEW070/// SCT090/// 11/05 Q1007 BLU
Loading
Personal Weather Stations






























Interactive Weather Map New forecast layout! Learn more

10-Day Weather Forecast

Advertisements
Track Severe Weather on mobile